createdAt,value
2022-11-30T00:01:20.565Z,18.33
2022-11-30T00:03:47.903Z,17.98
2022-11-30T00:06:17.104Z,18.50
2022-11-30T00:08:43.847Z,18.15
2022-11-30T00:11:15.645Z,18.70
2022-11-30T00:13:42.191Z,19.30
2022-11-30T00:16:09.738Z,18.75
2022-11-30T00:18:36.989Z,18.77
2022-11-30T00:21:05.958Z,18.35
2022-11-30T00:23:37.428Z,18.30
2022-11-30T00:26:07.050Z,17.95
2022-11-30T00:28:35.082Z,17.88
2022-11-30T00:31:07.495Z,17.73
2022-11-30T00:33:37.374Z,16.63
2022-11-30T00:36:09.052Z,17.90
2022-11-30T00:38:36.007Z,18.23
2022-11-30T00:41:03.291Z,17.23
2022-11-30T00:43:30.215Z,17.90
2022-11-30T00:45:57.246Z,17.30
2022-11-30T00:48:23.907Z,18.00
2022-11-30T00:50:51.088Z,18.52
2022-11-30T00:53:18.831Z,17.65
2022-11-30T00:55:45.960Z,17.50
2022-11-30T00:58:12.530Z,17.98
2022-11-30T01:00:40.320Z,17.20
2022-11-30T01:03:07.233Z,17.20
2022-11-30T01:05:34.613Z,17.17
2022-11-30T01:08:03.269Z,17.55
2022-11-30T01:10:30.168Z,17.00
2022-11-30T01:12:57.057Z,17.25
2022-11-30T01:15:23.867Z,17.25
2022-11-30T01:17:50.396Z,17.50
2022-11-30T01:20:17.278Z,16.20
2022-11-30T01:22:43.849Z,16.92
2022-11-30T01:25:11.004Z,17.23
2022-11-30T01:27:37.470Z,17.42
2022-11-30T01:30:05.463Z,16.85
2022-11-30T01:32:32.235Z,17.00
2022-11-30T01:34:58.735Z,16.27
2022-11-30T01:37:25.361Z,16.85
2022-11-30T01:39:51.901Z,15.85
2022-11-30T01:42:20.263Z,15.55
2022-11-30T01:44:51.173Z,16.73
2022-11-30T01:47:20.045Z,16.27
2022-11-30T01:49:49.840Z,17.15
2022-11-30T01:52:51.524Z,17.30
2022-11-30T01:55:36.199Z,17.15
2022-11-30T01:58:11.368Z,16.85
2022-11-30T02:00:43.184Z,18.92
2022-11-30T02:03:41.008Z,18.75
2022-11-30T02:06:08.263Z,18.10
2022-11-30T02:08:34.896Z,19.23
2022-11-30T02:11:06.058Z,19.02
2022-11-30T02:13:48.127Z,18.42
2022-11-30T02:16:58.408Z,19.15
2022-11-30T02:19:43.542Z,20.45
2022-11-30T02:22:42.949Z,18.67
2022-11-30T02:25:18.214Z,19.90
2022-11-30T02:27:56.685Z,19.02
2022-11-30T02:30:24.275Z,19.27
2022-11-30T02:32:58.228Z,18.77
2022-11-30T02:35:29.913Z,18.48
2022-11-30T02:37:58.126Z,19.23
2022-11-30T02:40:24.734Z,18.95
2022-11-30T02:42:54.090Z,19.25
2022-11-30T02:45:29.795Z,18.75
2022-11-30T02:48:09.693Z,19.50
2022-11-30T02:50:44.667Z,19.23
2022-11-30T02:53:11.510Z,18.80
2022-11-30T02:55:38.031Z,19.00
2022-11-30T02:58:05.467Z,18.48
2022-11-30T03:00:32.173Z,20.50
2022-11-30T03:02:58.697Z,19.05
2022-11-30T03:05:25.216Z,19.27
2022-11-30T03:07:51.720Z,20.70
2022-11-30T03:10:18.390Z,19.65
2022-11-30T03:12:44.958Z,20.30
2022-11-30T03:15:11.548Z,19.00
2022-11-30T03:17:38.060Z,19.25
2022-11-30T03:20:05.261Z,18.80
2022-11-30T03:22:31.711Z,20.80
2022-11-30T03:24:58.246Z,19.38
2022-11-30T03:27:24.772Z,18.98
2022-11-30T03:29:51.273Z,18.38
2022-11-30T03:32:18.896Z,19.17
2022-11-30T03:34:45.726Z,19.90
2022-11-30T03:37:12.376Z,19.13
2022-11-30T03:39:38.828Z,18.27
2022-11-30T03:42:05.442Z,18.70
2022-11-30T03:44:31.903Z,18.92
2022-11-30T03:46:58.458Z,19.17
2022-11-30T03:49:24.930Z,19.35
2022-11-30T03:51:51.376Z,19.73
2022-11-30T03:54:17.983Z,20.35
2022-11-30T03:56:44.495Z,18.48
2022-11-30T03:59:11.006Z,19.95
2022-11-30T04:01:41.967Z,19.40
2022-11-30T04:04:08.533Z,20.13
2022-11-30T04:06:35.064Z,20.08
2022-11-30T04:09:01.741Z,18.98
2022-11-30T04:11:29.432Z,19.80
2022-11-30T04:13:55.899Z,18.58
2022-11-30T04:16:22.805Z,19.10
2022-11-30T04:18:49.380Z,19.77
2022-11-30T04:21:15.866Z,19.63
2022-11-30T04:23:42.324Z,19.63
2022-11-30T04:26:12.189Z,18.52
2022-11-30T04:28:38.787Z,18.38
2022-11-30T04:31:06.588Z,18.83
2022-11-30T04:33:33.402Z,19.63
2022-11-30T04:36:03.327Z,17.20
2022-11-30T04:38:30.347Z,17.75
2022-11-30T04:40:57.020Z,19.25
2022-11-30T04:43:23.911Z,19.85
2022-11-30T04:45:50.624Z,18.52
2022-11-30T04:48:18.811Z,19.80
2022-11-30T04:50:45.298Z,20.05
2022-11-30T04:53:12.313Z,20.38
2022-11-30T04:55:40.954Z,21.05
2022-11-30T04:58:07.820Z,20.23
2022-11-30T05:00:35.282Z,18.98
2022-11-30T05:03:02.051Z,20.10
2022-11-30T05:05:28.615Z,18.50
2022-11-30T05:07:57.560Z,18.58
2022-11-30T05:10:24.988Z,18.58
2022-11-30T05:12:51.917Z,17.85
2022-11-30T05:15:18.602Z,19.13
2022-11-30T05:17:45.162Z,18.02
2022-11-30T05:20:11.858Z,18.15
2022-11-30T05:22:38.396Z,17.75
2022-11-30T05:25:05.176Z,19.45
2022-11-30T05:27:31.727Z,17.80
2022-11-30T05:29:59.007Z,17.55
2022-11-30T05:32:25.503Z,17.30
2022-11-30T05:34:52.307Z,17.48
2022-11-30T05:37:19.488Z,16.50
2022-11-30T05:39:46.080Z,17.17
2022-11-30T05:42:12.620Z,16.77
2022-11-30T05:44:39.084Z,17.60
2022-11-30T05:47:05.674Z,17.15
2022-11-30T05:49:32.237Z,17.75
2022-11-30T05:51:58.757Z,17.45
2022-11-30T05:54:25.225Z,16.90
2022-11-30T05:56:54.945Z,16.75
2022-11-30T05:59:25.864Z,16.90
2022-11-30T06:01:53.144Z,17.55
2022-11-30T06:04:20.104Z,16.83
2022-11-30T06:06:46.874Z,16.95
2022-11-30T06:09:15.712Z,17.02
2022-11-30T06:11:42.211Z,16.40
2022-11-30T06:14:08.974Z,16.13
2022-11-30T06:16:35.586Z,16.73
2022-11-30T06:19:02.120Z,15.80
2022-11-30T06:21:28.591Z,15.10
2022-11-30T06:23:55.155Z,14.63
2022-11-30T06:26:21.637Z,14.63
2022-11-30T06:28:48.969Z,15.75
2022-11-30T06:31:16.205Z,15.20
2022-11-30T06:33:43.173Z,15.82
2022-11-30T06:36:09.775Z,14.70
2022-11-30T06:38:36.382Z,15.27
2022-11-30T06:41:09.833Z,14.45
2022-11-30T06:43:38.361Z,15.38
2022-11-30T06:46:06.893Z,15.30
2022-11-30T06:48:34.733Z,14.13
2022-11-30T06:51:08.879Z,15.15
2022-11-30T06:53:36.186Z,14.60
2022-11-30T06:56:10.361Z,13.48
2022-11-30T06:58:39.071Z,12.88
2022-11-30T07:01:08.045Z,13.80
2022-11-30T07:03:34.680Z,13.07
2022-11-30T07:06:01.193Z,13.52
2022-11-30T07:08:27.687Z,13.40
2022-11-30T07:10:54.257Z,14.43
2022-11-30T07:13:20.755Z,14.35
2022-11-30T07:15:47.346Z,14.73
2022-11-30T07:18:14.003Z,13.50
2022-11-30T07:20:40.544Z,13.63
2022-11-30T07:23:25.844Z,15.02
2022-11-30T07:26:06.279Z,14.27
2022-11-30T07:28:38.455Z,13.88
2022-11-30T07:31:16.632Z,13.50
2022-11-30T07:33:46.281Z,13.55
2022-11-30T07:36:13.155Z,13.15
2022-11-30T07:38:39.740Z,13.50
2022-11-30T07:41:06.708Z,14.32
2022-11-30T07:43:33.279Z,10.88
2022-11-30T07:46:18.638Z,10.40
2022-11-30T07:48:46.611Z,7.55
2022-11-30T07:51:21.610Z,6.47
2022-11-30T07:53:48.413Z,7.20
2022-11-30T07:56:18.279Z,7.60
2022-11-30T07:58:45.163Z,7.53
2022-11-30T08:01:14.864Z,6.85
2022-11-30T08:03:41.931Z,7.30
2022-11-30T08:06:13.858Z,7.35
2022-11-30T08:08:44.927Z,7.50
2022-11-30T08:11:14.346Z,6.78
2022-11-30T08:13:41.843Z,7.72
2022-11-30T08:16:12.925Z,8.30
2022-11-30T08:18:40.894Z,7.82
2022-11-30T08:21:09.030Z,8.00
2022-11-30T08:23:40.852Z,7.68
2022-11-30T08:26:29.366Z,6.65
2022-11-30T08:28:57.020Z,8.63
2022-11-30T08:31:26.988Z,7.65
2022-11-30T08:34:02.084Z,8.10
2022-11-30T08:36:29.668Z,8.65
2022-11-30T08:39:01.002Z,9.07
2022-11-30T08:41:27.988Z,9.23
2022-11-30T08:43:54.922Z,9.55
2022-11-30T08:49:25.487Z,8.82
2022-11-30T08:57:33.413Z,13.07
2022-11-30T08:59:59.852Z,13.13
2022-11-30T09:02:26.465Z,11.13
2022-11-30T09:04:53.529Z,12.43
2022-11-30T09:07:20.258Z,13.18
2022-11-30T09:09:47.295Z,13.52
2022-11-30T09:12:13.720Z,14.85
2022-11-30T09:14:40.187Z,16.10
2022-11-30T09:17:06.632Z,17.80
2022-11-30T09:19:33.191Z,20.98
2022-11-30T09:22:00.474Z,21.67
2022-11-30T09:24:26.996Z,21.65
2022-11-30T09:26:56.725Z,21.58
2022-11-30T09:29:23.860Z,22.80
2022-11-30T09:31:51.658Z,22.73
2022-11-30T09:34:18.281Z,23.33
2022-11-30T09:36:44.800Z,23.27
2022-11-30T09:39:13.887Z,21.73
2022-11-30T09:41:53.917Z,22.95
2022-11-30T09:44:23.392Z,22.48
2022-11-30T09:47:05.030Z,23.15
2022-11-30T09:49:37.256Z,23.60
2022-11-30T09:52:09.782Z,22.77
2022-11-30T09:54:38.723Z,22.70
2022-11-30T09:57:32.515Z,24.08
2022-11-30T10:00:02.465Z,24.55
2022-11-30T10:02:39.537Z,24.33
2022-11-30T10:05:15.756Z,23.40
2022-11-30T10:07:51.559Z,25.70
2022-11-30T10:10:35.897Z,25.33
2022-11-30T10:13:05.642Z,25.58
2022-11-30T10:15:44.424Z,27.52
2022-11-30T10:18:23.229Z,26.65
2022-11-30T10:21:05.306Z,27.77
2022-11-30T10:23:58.660Z,28.38
2022-11-30T10:26:38.150Z,28.20
2022-11-30T10:29:18.855Z,26.85
2022-11-30T10:31:49.098Z,27.55
2022-11-30T10:34:21.181Z,27.60
2022-11-30T10:37:13.971Z,29.35
2022-11-30T10:39:58.937Z,27.67
2022-11-30T10:42:32.884Z,28.13
2022-11-30T10:45:00.558Z,27.65
2022-11-30T10:47:36.654Z,28.92
2022-11-30T10:50:07.875Z,28.52
2022-11-30T10:53:01.082Z,27.80
2022-11-30T10:55:36.271Z,28.30
2022-11-30T10:58:13.287Z,28.60
2022-11-30T11:00:39.788Z,31.27
2022-11-30T11:03:24.262Z,29.58
2022-11-30T11:06:20.942Z,30.38
2022-11-30T11:08:47.595Z,29.38
2022-11-30T11:11:37.370Z,29.63
2022-11-30T11:14:16.115Z,30.23
2022-11-30T11:16:57.157Z,30.35
2022-11-30T11:19:41.846Z,30.05
2022-11-30T11:22:21.694Z,28.42
2022-11-30T11:24:50.559Z,30.00
2022-11-30T11:27:31.900Z,28.25
2022-11-30T11:30:28.653Z,27.75
2022-11-30T11:33:13.623Z,28.23
2022-11-30T11:35:45.839Z,26.80
2022-11-30T11:38:27.105Z,25.98
2022-11-30T11:41:02.425Z,24.38
2022-11-30T11:43:32.272Z,25.73
2022-11-30T11:46:11.892Z,24.40
2022-11-30T11:48:46.010Z,25.67
2022-11-30T11:51:13.921Z,25.63
2022-11-30T11:53:53.625Z,23.50
2022-11-30T11:56:32.758Z,23.88
2022-11-30T11:59:32.160Z,22.90
2022-11-30T12:02:14.107Z,21.52
2022-11-30T12:04:41.455Z,21.33
2022-11-30T12:07:24.205Z,20.83
2022-11-30T12:10:02.990Z,19.88
2022-11-30T12:12:29.568Z,21.83
2022-11-30T12:14:56.670Z,20.45
2022-11-30T12:17:35.324Z,20.30
2022-11-30T12:20:18.328Z,19.33
2022-11-30T12:22:50.592Z,19.58
2022-11-30T12:25:27.654Z,18.08
2022-11-30T12:28:21.979Z,20.10
2022-11-30T12:30:51.392Z,17.98
2022-11-30T12:33:44.255Z,18.35
2022-11-30T12:36:31.654Z,17.58
2022-11-30T12:39:04.542Z,17.50
2022-11-30T12:41:51.403Z,18.13
2022-11-30T12:44:44.801Z,16.33
2022-11-30T12:47:20.956Z,16.90
2022-11-30T12:49:57.859Z,15.45
2022-11-30T12:52:58.377Z,15.63
2022-11-30T12:55:54.567Z,17.17
2022-11-30T12:58:36.309Z,16.25
2022-11-30T13:01:43.051Z,15.85
2022-11-30T13:04:19.353Z,15.68
2022-11-30T13:06:52.842Z,15.00
2022-11-30T13:09:30.180Z,14.48
2022-11-30T13:12:04.227Z,14.93
2022-11-30T13:14:33.631Z,15.23
2022-11-30T13:17:06.482Z,14.98
2022-11-30T13:19:39.848Z,14.10
2022-11-30T13:22:14.723Z,14.77
2022-11-30T13:24:47.880Z,13.75
2022-11-30T13:27:22.840Z,14.55
2022-11-30T13:29:54.820Z,15.23
2022-11-30T13:32:56.213Z,14.30
2022-11-30T13:35:29.876Z,14.02
2022-11-30T13:38:28.630Z,14.50
2022-11-30T13:40:58.340Z,15.30
2022-11-30T13:43:28.755Z,15.07
2022-11-30T13:46:05.945Z,14.50
2022-11-30T13:48:37.575Z,14.70
2022-11-30T13:51:04.998Z,14.70
2022-11-30T13:53:35.854Z,15.02
2022-11-30T13:56:05.654Z,15.85
2022-11-30T13:58:32.803Z,16.00
2022-11-30T14:01:23.401Z,15.05
2022-11-30T14:04:14.418Z,16.45
2022-11-30T14:06:51.237Z,15.43
2022-11-30T14:09:40.194Z,16.10
2022-11-30T14:12:31.658Z,16.17
2022-11-30T14:14:59.682Z,15.45
2022-11-30T14:17:27.992Z,16.58
2022-11-30T14:20:00.330Z,15.13
2022-11-30T14:22:29.618Z,15.93
2022-11-30T14:24:56.607Z,15.43
2022-11-30T14:27:25.116Z,15.50
2022-11-30T14:29:57.244Z,15.50
2022-11-30T14:32:48.882Z,16.10
2022-11-30T14:35:20.728Z,15.43
2022-11-30T14:37:56.054Z,16.40
2022-11-30T14:40:26.203Z,15.57
2022-11-30T14:42:55.957Z,16.80
2022-11-30T14:45:29.097Z,16.95
2022-11-30T14:48:17.853Z,16.27
2022-11-30T14:50:48.234Z,16.70
2022-11-30T14:53:55.266Z,15.85
2022-11-30T14:56:36.068Z,16.75
2022-11-30T14:59:49.328Z,15.63
2022-11-30T15:02:29.389Z,15.88
2022-11-30T15:04:57.883Z,14.13
2022-11-30T15:07:25.419Z,13.27
2022-11-30T15:10:08.971Z,12.27
2022-11-30T15:12:40.841Z,12.73
2022-11-30T15:15:15.912Z,12.23
2022-11-30T15:17:53.388Z,12.73
2022-11-30T15:20:38.777Z,12.32
2022-11-30T15:23:05.405Z,13.23
2022-11-30T15:25:39.056Z,12.70
2022-11-30T15:28:07.318Z,13.00
2022-11-30T15:30:38.498Z,12.93
2022-11-30T15:33:05.504Z,14.23
2022-11-30T15:35:50.372Z,13.35
2022-11-30T15:38:25.722Z,13.65
2022-11-30T15:41:03.117Z,13.75
2022-11-30T15:43:37.428Z,13.70
2022-11-30T15:46:04.875Z,14.80
2022-11-30T15:48:38.484Z,13.27
2022-11-30T15:51:05.869Z,13.88
2022-11-30T15:53:35.988Z,13.77
2022-11-30T15:56:08.686Z,13.30
2022-11-30T15:58:36.876Z,12.90
2022-11-30T16:01:14.179Z,13.27
2022-11-30T16:03:55.650Z,13.95
2022-11-30T16:06:35.080Z,13.55
2022-11-30T16:09:18.668Z,12.57
2022-11-30T16:11:53.847Z,13.65
2022-11-30T16:14:20.632Z,13.75
2022-11-30T16:16:47.969Z,13.30
2022-11-30T16:19:14.610Z,14.05
2022-11-30T16:21:41.462Z,13.25
2022-11-30T16:24:13.502Z,12.93
2022-11-30T16:26:55.610Z,12.88
2022-11-30T16:29:22.544Z,13.75
2022-11-30T16:31:49.198Z,14.45
2022-11-30T16:34:15.806Z,14.35
2022-11-30T16:36:43.336Z,14.48
2022-11-30T16:39:12.182Z,14.27
2022-11-30T16:41:38.765Z,13.10
2022-11-30T16:44:12.201Z,14.98
2022-11-30T16:46:38.646Z,14.27
2022-11-30T16:49:05.173Z,14.40
2022-11-30T16:51:36.189Z,14.93
2022-11-30T16:54:03.072Z,15.73
2022-11-30T16:56:29.665Z,15.15
2022-11-30T16:58:56.195Z,15.18
2022-11-30T17:01:35.096Z,16.00
2022-11-30T17:04:24.045Z,16.25
2022-11-30T17:06:53.649Z,13.98
2022-11-30T17:09:23.046Z,16.63
2022-11-30T17:11:50.930Z,15.48
2022-11-30T17:14:18.216Z,16.08
2022-11-30T17:16:44.825Z,16.73
2022-11-30T17:19:11.734Z,16.45
2022-11-30T17:21:40.111Z,17.05
2022-11-30T17:24:07.364Z,17.30
2022-11-30T17:26:33.977Z,17.35
2022-11-30T17:29:00.484Z,19.05
2022-11-30T17:31:27.173Z,18.17
2022-11-30T17:33:53.780Z,18.67
2022-11-30T17:36:20.362Z,20.00
2022-11-30T17:38:46.901Z,21.10
2022-11-30T17:41:19.096Z,18.95
2022-11-30T17:43:46.027Z,19.23
2022-11-30T17:46:15.759Z,20.45
2022-11-30T17:48:45.991Z,19.25
2022-11-30T17:51:14.653Z,20.00
2022-11-30T17:53:44.370Z,20.48
2022-11-30T17:56:19.553Z,19.40
2022-11-30T17:59:00.216Z,20.40
2022-11-30T18:01:29.590Z,20.13
2022-11-30T18:04:05.474Z,20.40
2022-11-30T18:06:40.886Z,19.75
2022-11-30T18:09:10.833Z,21.15
2022-11-30T18:11:40.664Z,20.48
2022-11-30T18:14:07.292Z,21.15
2022-11-30T18:16:37.144Z,21.58
2022-11-30T18:19:12.358Z,20.40
2022-11-30T18:21:40.244Z,20.73
2022-11-30T18:24:07.554Z,21.42
2022-11-30T18:26:35.537Z,21.23
2022-11-30T18:29:02.709Z,21.58
2022-11-30T18:31:31.269Z,21.40
2022-11-30T18:34:00.099Z,22.90
2022-11-30T18:36:27.196Z,21.23
2022-11-30T18:38:54.460Z,20.33
2022-11-30T18:41:22.931Z,20.70
2022-11-30T18:43:50.123Z,21.65
2022-11-30T18:46:16.647Z,20.25
2022-11-30T18:48:43.215Z,20.15
2022-11-30T18:51:21.075Z,18.60
2022-11-30T18:53:47.872Z,21.23
2022-11-30T18:56:17.793Z,20.10
2022-11-30T18:58:45.181Z,20.20
2022-11-30T19:01:18.205Z,20.48
2022-11-30T19:03:53.527Z,20.20
2022-11-30T19:06:21.004Z,20.55
2022-11-30T19:08:48.117Z,20.60
2022-11-30T19:11:15.555Z,20.90
2022-11-30T19:13:42.333Z,21.10
2022-11-30T19:16:15.808Z,20.08
2022-11-30T19:18:44.884Z,20.10
2022-11-30T19:21:14.239Z,21.60
2022-11-30T19:23:41.124Z,21.90
2022-11-30T19:26:09.903Z,21.15
2022-11-30T19:28:38.008Z,21.35
2022-11-30T19:31:16.014Z,21.73
2022-11-30T19:33:45.332Z,21.17
2022-11-30T19:36:14.952Z,21.17
2022-11-30T19:38:41.540Z,21.63
2022-11-30T19:41:09.782Z,21.63
2022-11-30T19:43:36.937Z,21.85
2022-11-30T19:46:18.763Z,21.13
2022-11-30T19:48:45.756Z,21.33
2022-11-30T19:51:18.033Z,22.00
2022-11-30T19:53:45.317Z,20.80
2022-11-30T19:56:17.341Z,22.23
2022-11-30T19:58:45.757Z,22.65
2022-11-30T20:01:19.352Z,22.60
2022-11-30T20:03:45.936Z,22.20
2022-11-30T20:06:12.455Z,21.80
2022-11-30T20:08:38.957Z,22.25
2022-11-30T20:11:07.004Z,22.85
2022-11-30T20:13:33.527Z,22.35
2022-11-30T20:16:06.451Z,23.23
2022-11-30T20:18:32.999Z,22.65
2022-11-30T20:21:16.690Z,22.90
2022-11-30T20:23:44.734Z,21.42
2022-11-30T20:26:30.091Z,21.95
2022-11-30T20:28:58.399Z,22.55
2022-11-30T20:31:26.236Z,21.73
2022-11-30T20:33:52.757Z,22.45
2022-11-30T20:36:20.670Z,24.13
2022-11-30T20:38:47.501Z,22.27
2022-11-30T20:41:20.019Z,21.67
2022-11-30T20:43:47.202Z,21.02
2022-11-30T20:46:19.203Z,20.75
2022-11-30T20:48:46.428Z,21.70
2022-11-30T20:51:30.603Z,20.38
2022-11-30T20:54:01.063Z,21.02
2022-11-30T20:56:27.775Z,21.05
2022-11-30T20:58:54.340Z,21.58
2022-11-30T21:01:22.254Z,21.52
2022-11-30T21:03:49.414Z,21.90
2022-11-30T21:06:16.823Z,22.33
2022-11-30T21:08:43.708Z,21.55
2022-11-30T21:11:16.229Z,22.35
2022-11-30T21:13:44.205Z,20.40
2022-11-30T21:16:11.958Z,21.35
2022-11-30T21:18:40.411Z,21.73
2022-11-30T21:21:13.211Z,21.67
2022-11-30T21:23:40.064Z,21.17
2022-11-30T21:26:08.760Z,23.80
2022-11-30T21:28:38.193Z,22.65
2022-11-30T21:31:05.927Z,22.50
2022-11-30T21:33:32.791Z,22.60
2022-11-30T21:36:01.491Z,25.05
2022-11-30T21:38:28.040Z,22.92
2022-11-30T21:40:59.902Z,24.90
2022-11-30T21:43:28.017Z,24.02
2022-11-30T21:46:03.230Z,24.00
2022-11-30T21:48:34.099Z,25.40
2022-11-30T21:51:08.711Z,24.08
2022-11-30T21:53:37.911Z,25.35
2022-11-30T21:56:13.555Z,25.00
2022-11-30T21:58:42.106Z,25.88
2022-11-30T22:01:12.632Z,26.23
2022-11-30T22:03:39.182Z,26.20
2022-11-30T22:06:12.779Z,26.48
2022-11-30T22:08:40.083Z,26.42
2022-11-30T22:11:10.455Z,26.95
2022-11-30T22:13:37.599Z,25.13
2022-11-30T22:16:12.657Z,25.45
2022-11-30T22:18:39.915Z,24.90
2022-11-30T22:21:14.621Z,26.20
2022-11-30T22:24:02.561Z,24.67
2022-11-30T22:26:30.588Z,24.20
2022-11-30T22:29:01.386Z,24.25
2022-11-30T22:31:33.975Z,25.27
2022-11-30T22:34:01.016Z,25.48
2022-11-30T22:36:30.437Z,23.30
2022-11-30T22:39:02.831Z,23.85
2022-11-30T22:41:30.094Z,24.30
2022-11-30T22:43:57.527Z,25.02
2022-11-30T22:46:28.487Z,23.27
2022-11-30T22:48:55.674Z,23.63
2022-11-30T22:51:24.918Z,25.52
2022-11-30T22:53:52.603Z,23.48
2022-11-30T22:56:27.699Z,25.17
2022-11-30T22:58:55.963Z,25.27
2022-11-30T23:01:31.458Z,25.65
2022-11-30T23:06:28.008Z,24.02
2022-11-30T23:08:54.716Z,25.65
2022-11-30T23:11:24.019Z,26.00
2022-11-30T23:13:50.593Z,26.67
2022-11-30T23:16:18.223Z,26.38
2022-11-30T23:18:48.323Z,27.17
2022-11-30T23:21:24.267Z,26.38
2022-11-30T23:23:50.909Z,26.95
2022-11-30T23:26:26.026Z,27.95
2022-11-30T23:28:54.138Z,28.27
2022-11-30T23:31:33.513Z,27.95
2022-11-30T23:34:09.011Z,29.33
2022-11-30T23:36:36.754Z,29.95
2022-11-30T23:39:10.215Z,29.58
2022-11-30T23:41:36.864Z,31.40
2022-11-30T23:44:03.864Z,28.85
2022-11-30T23:46:31.101Z,29.17
2022-11-30T23:48:57.669Z,29.40
2022-11-30T23:51:24.701Z,28.65
2022-11-30T23:53:51.361Z,28.85
2022-11-30T23:56:19.823Z,29.10
2022-11-30T23:58:46.614Z,28.38
